Time;durP1;ratioP1;P1;durP2;ratioP2;P2;SDS_P1;SDS_P2;PMS_P1;PMS_P2;Temp;Humidity;BMP_temperature;BMP_pressure;BME280_temperature;BME280_humidity;BME280_pressure;Samples;Min_cycle;Max_cycle;Signal;HPM_P1;HPM_P2
2023/05/20 00:00:49;;;;;;;13.23;11.30;;;;;;;;;;4965105;28;20029;-79
2023/05/20 00:04:03;;;;;;;13.18;10.50;;;;;;;;;;4962478;28;20030;-79
2023/05/20 00:07:17;;;;;;;12.32;10.95;;;;;;;;;;5015115;28;20093;-79
2023/05/20 00:10:04;;;;;;;12.35;11.07;;;;;;;;;;5003893;28;20041;-79
2023/05/20 00:12:29;;;;;;;12.98;11.00;;;;;;;;;;4973219;28;20694;-78
2023/05/20 00:14:54;;;;;;;11.75;10.45;;;;;;;;;;4963229;28;20107;-77
2023/05/20 00:17:20;;;;;;;13.13;11.82;;;;;;;;;;4985219;28;20177;-77
2023/05/20 00:19:46;;;;;;;10.35;9.45;;;;;;;;;;4989075;28;20022;-77
2023/05/20 00:22:12;;;;;;;13.07;10.75;;;;;;;;;;4986824;28;20033;-77
2023/05/20 00:24:37;;;;;;;13.27;11.88;;;;;;;;;;4988334;28;20107;-76
2023/05/20 00:27:05;;;;;;;15.80;11.98;;;;;;;;;;4993359;28;20109;-81
2023/05/20 00:29:32;;;;;;;14.77;11.85;;;;;;;;;;5012610;28;20027;-82
2023/05/20 00:32:03;;;;;;;15.23;11.98;;;;;;;;;;5007530;28;20043;-80
2023/05/20 00:35:25;;;;;;;14.15;12.13;;;;;;;;;;4940804;28;20266;-80
2023/05/20 00:38:28;;;;;;;12.20;11.10;;;;;;;;;;4905352;29;20037;-80
2023/05/20 00:41:40;;;;;;;12.13;11.02;;;;;;;;;;4861106;29;20028;-80
2023/05/20 00:44:22;;;;;;;16.92;13.13;;;;;;;;;;4920678;29;20044;-82
2023/05/20 00:46:49;;;;;;;17.25;13.05;;;;;;;;;;4914673;29;20056;-80
2023/05/20 00:49:15;;;;;;;14.10;11.65;;;;;;;;;;4900516;29;20053;-80
2023/05/20 00:51:52;;;;;;;14.35;12.82;;;;;;;;;;4939041;28;20649;-80
2023/05/20 00:54:32;;;;;;;13.43;12.15;;;;;;;;;;5005985;28;20046;-79
2023/05/20 00:57:01;;;;;;;12.52;11.27;;;;;;;;;;5009703;28;20064;-81
2023/05/20 01:02:43;;;;;;;12.98;11.80;;;;;;;;;;4987948;28;20057;-80
2023/05/20 01:05:09;;;;;;;13.70;12.32;;;;;;;;;;4978799;28;20041;-79
2023/05/20 01:07:38;;;;;;;16.33;12.48;;;;;;;;;;4994387;28;20018;-79
2023/05/20 01:10:04;;;;;;;;;;;;;;;;;;4993538;28;20050;-80
2023/05/20 01:12:51;;;;;;;13.98;12.13;;;;;;;;;;5005895;28;20030;-78
2023/05/20 01:15:17;;;;;;;13.77;12.35;;;;;;;;;;4987742;28;20038;-77
2023/05/20 01:17:46;;;;;;;15.02;13.35;;;;;;;;;;4993428;28;20027;-78
2023/05/20 01:20:12;;;;;;;24.20;14.48;;;;;;;;;;4988021;28;20026;-77
2023/05/20 01:22:38;;;;;;;13.32;11.88;;;;;;;;;;4990324;28;20049;-78
2023/05/20 01:25:04;;;;;;;15.55;12.77;;;;;;;;;;5006752;28;20022;-80
2023/05/20 01:27:30;;;;;;;13.63;11.80;;;;;;;;;;5006585;28;20057;-79
2023/05/20 01:29:56;;;;;;;13.95;12.55;;;;;;;;;;4993795;28;20077;-79
2023/05/20 01:32:31;;;;;;;12.70;11.50;;;;;;;;;;4981840;28;20042;-80
2023/05/20 01:35:07;;;;;;;17.38;13.80;;;;;;;;;;4989499;28;20440;-77
2023/05/20 01:37:36;;;;;;;13.45;12.02;;;;;;;;;;4974351;28;20378;-79
2023/05/20 01:40:06;;;;;;;12.90;11.57;;;;;;;;;;4988613;28;20019;-80
2023/05/20 01:42:32;;;;;;;13.90;12.50;;;;;;;;;;4994314;28;20089;-80
2023/05/20 01:45:00;;;;;;;18.40;11.00;;;;;;;;;;5010548;28;20022;-80
2023/05/20 01:47:27;;;;;;;13.88;12.48;;;;;;;;;;4995525;28;20400;-79
2023/05/20 01:49:54;;;;;;;12.20;10.80;;;;;;;;;;5002444;28;20069;-80
2023/05/20 01:52:37;;;;;;;13.57;12.20;;;;;;;;;;4985841;28;20112;-79
2023/05/20 01:55:05;;;;;;;14.80;12.35;;;;;;;;;;4990602;28;20043;-81
2023/05/20 01:57:30;;;;;;;15.15;12.57;;;;;;;;;;4977806;28;20112;-78
2023/05/20 01:59:57;;;;;;;11.95;10.82;;;;;;;;;;5004644;28;20504;-81
2023/05/20 02:02:22;;;;;;;14.00;12.38;;;;;;;;;;4990677;28;20061;-80
2023/05/20 02:04:49;;;;;;;13.20;11.82;;;;;;;;;;5002090;28;20030;-79
2023/05/20 02:07:17;;;;;;;14.05;12.50;;;;;;;;;;5002904;28;20038;-80
2023/05/20 02:09:43;;;;;;;13.25;11.93;;;;;;;;;;4986487;28;20041;-79
2023/05/20 02:12:15;;;;;;;15.48;12.52;;;;;;;;;;4987445;28;20535;-80
2023/05/20 02:14:49;;;;;;;16.08;12.52;;;;;;;;;;4996288;28;20025;-79
2023/05/20 02:17:17;;;;;;;19.80;13.18;;;;;;;;;;4980244;28;20718;-80
2023/05/20 02:19:46;;;;;;;14.27;12.88;;;;;;;;;;5004480;28;20557;-80
2023/05/20 02:22:14;;;;;;;15.00;13.43;;;;;;;;;;4988523;28;20025;-81
2023/05/20 02:24:39;;;;;;;14.82;13.30;;;;;;;;;;4990237;28;20049;-80
2023/05/20 02:27:05;;;;;;;16.23;12.95;;;;;;;;;;4996975;28;20014;-79
2023/05/20 02:29:31;;;;;;;14.60;13.30;;;;;;;;;;4991415;28;20397;-78
2023/05/20 02:31:57;;;;;;;13.02;11.73;;;;;;;;;;4988201;28;20386;-78
2023/05/20 02:34:22;;;;;;;12.30;10.77;;;;;;;;;;4990438;28;20022;-78
2023/05/20 02:36:48;;;;;;;14.10;12.15;;;;;;;;;;4989189;28;20030;-79
2023/05/20 02:39:15;;;;;;;13.88;11.48;;;;;;;;;;5006538;28;20017;-81
2023/05/20 02:42:06;;;;;;;15.73;13.02;;;;;;;;;;5009052;28;20018;-80
2023/05/20 02:44:35;;;;;;;14.45;11.05;;;;;;;;;;5006790;28;20049;-81
2023/05/20 02:47:00;;;;;;;15.38;12.82;;;;;;;;;;4989996;28;20101;-80
2023/05/20 02:49:25;;;;;;;14.10;12.77;;;;;;;;;;4999327;28;20085;-78
2023/05/20 02:51:55;;;;;;;12.27;11.00;;;;;;;;;;4993019;28;20040;-80
2023/05/20 02:54:29;;;;;;;12.35;11.20;;;;;;;;;;5004655;28;20050;-80
2023/05/20 02:57:21;;;;;;;14.20;10.63;;;;;;;;;;5007254;28;20041;-80
2023/05/20 02:59:52;;;;;;;12.27;11.00;;;;;;;;;;5007962;28;20569;-80
2023/05/20 03:02:19;;;;;;;16.73;12.10;;;;;;;;;;5004986;28;20038;-79
2023/05/20 03:04:46;;;;;;;21.50;16.88;;;;;;;;;;4999711;28;20111;-79
2023/05/20 03:07:16;;;;;;;23.42;19.42;;;;;;;;;;4989251;28;20117;-79
2023/05/20 03:09:41;;;;;;;25.73;20.67;;;;;;;;;;5005025;28;20015;-81
2023/05/20 03:12:13;;;;;;;45.08;32.83;;;;;;;;;;4991886;28;20097;-81
2023/05/20 03:14:39;;;;;;;42.40;28.42;;;;;;;;;;4992570;28;20137;-78
2023/05/20 03:17:05;;;;;;;19.33;17.15;;;;;;;;;;4984923;28;20109;-79
2023/05/20 03:19:30;;;;;;;26.70;16.55;;;;;;;;;;4968485;28;20808;-77
2023/05/20 03:21:57;;;;;;;17.45;15.20;;;;;;;;;;4998206;28;20032;-81
2023/05/20 03:24:22;;;;;;;19.67;14.80;;;;;;;;;;4999272;28;20106;-78
2023/05/20 03:26:48;;;;;;;16.85;14.75;;;;;;;;;;4984940;28;20106;-77
2023/05/20 03:29:13;;;;;;;19.90;16.92;;;;;;;;;;4987048;28;20022;-78
2023/05/20 03:31:40;;;;;;;14.98;12.73;;;;;;;;;;4975253;28;20030;-81
2023/05/20 03:34:07;;;;;;;13.68;12.25;;;;;;;;;;5005707;28;20031;-81
2023/05/20 03:36:38;;;;;;;19.42;13.45;;;;;;;;;;5000756;28;20022;-81
2023/05/20 03:39:04;;;;;;;15.65;10.85;;;;;;;;;;4992130;28;19995;-81
2023/05/20 03:47:46;;;;;;;8.95;7.53;;;;;;;;;;5002728;28;20085;-87
2023/05/20 03:50:11;;;;;;;11.63;8.18;;;;;;;;;;4984318;28;20026;-87
2023/05/20 03:52:37;;;;;;;9.32;6.72;;;;;;;;;;4983236;28;20026;-86
2023/05/20 03:55:03;;;;;;;8.15;7.07;;;;;;;;;;5001928;28;20037;-86
2023/05/20 03:57:29;;;;;;;7.55;6.85;;;;;;;;;;5004773;28;20026;-83
2023/05/20 03:59:54;;;;;;;7.88;7.18;;;;;;;;;;4988479;28;20030;-85
2023/05/20 04:02:20;;;;;;;12.83;7.30;;;;;;;;;;5003772;28;20128;-84
2023/05/20 04:04:45;;;;;;;11.88;8.25;;;;;;;;;;5005081;28;20271;-84
2023/05/20 04:07:11;;;;;;;15.30;12.83;;;;;;;;;;5005347;28;21083;-84
2023/05/20 04:09:37;;;;;;;17.47;14.97;;;;;;;;;;5003208;28;20766;-83
2023/05/20 04:12:02;;;;;;;17.95;15.18;;;;;;;;;;5003578;28;20296;-84
2023/05/20 04:14:27;;;;;;;15.38;13.18;;;;;;;;;;5004698;28;20025;-83
2023/05/20 04:16:53;;;;;;;14.20;12.70;;;;;;;;;;5020789;28;20049;-85
2023/05/20 04:19:18;;;;;;;12.27;11.30;;;;;;;;;;5003029;28;20034;-84
2023/05/20 04:21:44;;;;;;;12.33;11.33;;;;;;;;;;5003716;28;20494;-84
2023/05/20 04:24:09;;;;;;;10.45;8.75;;;;;;;;;;5004026;28;20320;-87
2023/05/20 04:26:35;;;;;;;8.30;7.60;;;;;;;;;;5004496;28;20792;-84
2023/05/20 04:29:02;;;;;;;7.50;6.80;;;;;;;;;;5004371;28;20017;-85
2023/05/20 04:31:28;;;;;;;7.45;6.70;;;;;;;;;;5019202;28;20416;-82
2023/05/20 04:33:53;;;;;;;10.55;7.50;;;;;;;;;;5003732;28;20014;-81
2023/05/20 04:36:19;;;;;;;9.23;8.05;;;;;;;;;;5002054;28;20481;-82
2023/05/20 04:38:44;;;;;;;40.10;9.00;;;;;;;;;;5004972;28;20058;-82
2023/05/20 04:41:10;;;;;;;8.27;6.70;;;;;;;;;;5002613;28;20036;-83
2023/05/20 04:43:37;;;;;;;9.65;6.47;;;;;;;;;;5002851;28;20515;-83
2023/05/20 04:46:04;;;;;;;14.65;11.25;;;;;;;;;;5003980;28;20050;-85
2023/05/20 04:48:30;;;;;;;11.70;10.57;;;;;;;;;;5002498;28;20393;-85
2023/05/20 04:50:55;;;;;;;12.15;9.18;;;;;;;;;;5002587;28;20036;-85
2023/05/20 04:53:22;;;;;;;10.15;8.63;;;;;;;;;;5000934;28;20520;-84
2023/05/20 04:55:48;;;;;;;7.88;7.38;;;;;;;;;;5001236;28;20396;-82
2023/05/20 04:58:16;;;;;;;8.68;7.60;;;;;;;;;;4994914;28;20041;-84
2023/05/20 05:00:42;;;;;;;7.82;7.22;;;;;;;;;;4997114;28;20029;-84
2023/05/20 05:03:07;;;;;;;9.70;8.80;;;;;;;;;;5001945;28;20619;-85
2023/05/20 05:05:37;;;;;;;9.43;8.57;;;;;;;;;;5000618;28;20108;-84
2023/05/20 05:08:03;;;;;;;9.25;8.35;;;;;;;;;;5000755;28;20113;-87
2023/05/20 05:10:28;;;;;;;8.73;7.90;;;;;;;;;;4994109;28;20528;-85
2023/05/20 05:12:54;;;;;;;8.48;7.78;;;;;;;;;;5001441;28;20033;-86
2023/05/20 05:15:19;;;;;;;7.40;6.88;;;;;;;;;;4996551;28;20014;-87
2023/05/20 05:17:44;;;;;;;7.73;6.93;;;;;;;;;;5001939;28;20018;-85
2023/05/20 05:20:10;;;;;;;7.93;7.30;;;;;;;;;;5000397;28;20484;-85
2023/05/20 05:22:35;;;;;;;8.85;7.95;;;;;;;;;;5002220;28;20264;-84
2023/05/20 05:25:02;;;;;;;10.68;7.18;;;;;;;;;;5004598;28;20507;-87
2023/05/20 05:27:27;;;;;;;7.28;6.70;;;;;;;;;;5001514;28;20117;-87
2023/05/20 05:29:52;;;;;;;7.30;6.47;;;;;;;;;;5000030;28;20034;-85
2023/05/20 05:32:18;;;;;;;7.23;6.53;;;;;;;;;;4998027;28;20037;-88
2023/05/20 05:34:43;;;;;;;6.80;6.30;;;;;;;;;;5001560;28;20021;-86
2023/05/20 05:37:08;;;;;;;7.33;6.83;;;;;;;;;;4999025;28;20033;-85
2023/05/20 05:39:36;;;;;;;9.10;6.20;;;;;;;;;;5000297;28;20057;-86
2023/05/20 05:42:01;;;;;;;7.45;6.80;;;;;;;;;;5001304;28;20022;-85
2023/05/20 05:44:26;;;;;;;7.10;6.50;;;;;;;;;;4998275;28;20442;-84
2023/05/20 05:46:52;;;;;;;7.97;7.40;;;;;;;;;;4999542;28;20261;-84
2023/05/20 05:49:17;;;;;;;7.20;6.70;;;;;;;;;;4999400;28;20022;-86
2023/05/20 05:51:42;;;;;;;7.37;6.63;;;;;;;;;;5001210;28;20145;-85
2023/05/20 05:54:08;;;;;;;7.67;7.03;;;;;;;;;;4998372;28;20271;-83
2023/05/20 05:56:33;;;;;;;7.80;7.10;;;;;;;;;;4998760;28;20013;-84
2023/05/20 05:58:58;;;;;;;7.50;6.80;;;;;;;;;;4999228;28;20481;-84
2023/05/20 06:01:24;;;;;;;9.88;6.70;;;;;;;;;;4998697;28;20332;-86
2023/05/20 06:03:49;;;;;;;7.80;7.00;;;;;;;;;;4999423;28;20036;-85
2023/05/20 06:06:14;;;;;;;9.38;6.90;;;;;;;;;;4998052;28;20029;-82
2023/05/20 06:08:40;;;;;;;6.75;6.15;;;;;;;;;;4999010;28;20018;-85
2023/05/20 06:11:05;;;;;;;6.77;6.27;;;;;;;;;;4999327;28;20036;-84
2023/05/20 06:13:30;;;;;;;7.00;6.45;;;;;;;;;;4999152;28;20111;-84
2023/05/20 06:15:56;;;;;;;7.47;6.77;;;;;;;;;;4997681;28;20509;-84
2023/05/20 06:18:21;;;;;;;8.10;7.40;;;;;;;;;;4998117;28;20022;-85
2023/05/20 06:20:52;;;;;;;8.47;7.70;;;;;;;;;;4998521;28;20036;-86
2023/05/20 06:23:18;;;;;;;11.57;8.77;;;;;;;;;;4998377;28;20452;-85
2023/05/20 06:25:43;;;;;;;9.18;8.45;;;;;;;;;;4998571;28;20407;-85
2023/05/20 06:28:09;;;;;;;12.07;9.07;;;;;;;;;;4997488;28;20069;-84
2023/05/20 06:30:34;;;;;;;8.90;8.20;;;;;;;;;;4999731;28;20025;-85
2023/05/20 06:32:59;;;;;;;9.40;8.50;;;;;;;;;;4998883;28;20465;-85
2023/05/20 06:35:25;;;;;;;8.20;7.45;;;;;;;;;;4999960;28;20021;-85
2023/05/20 06:37:50;;;;;;;7.80;7.10;;;;;;;;;;4998081;28;20014;-85
2023/05/20 06:40:15;;;;;;;7.80;7.20;;;;;;;;;;4999439;28;20022;-83
2023/05/20 06:42:41;;;;;;;7.85;7.03;;;;;;;;;;4998192;28;20033;-83
2023/05/20 06:45:06;;;;;;;7.47;6.90;;;;;;;;;;4998724;28;20491;-82
2023/05/20 06:47:31;;;;;;;7.55;6.95;;;;;;;;;;4998586;28;20535;-81
2023/05/20 06:49:57;;;;;;;7.90;6.53;;;;;;;;;;4996959;28;20384;-83
2023/05/20 06:52:22;;;;;;;8.13;7.37;;;;;;;;;;4998328;28;20280;-83
2023/05/20 06:54:47;;;;;;;8.03;7.33;;;;;;;;;;4998418;28;20291;-80
2023/05/20 06:57:13;;;;;;;9.20;7.10;;;;;;;;;;4998364;28;20272;-82
2023/05/20 06:59:38;;;;;;;9.07;8.30;;;;;;;;;;4999208;28;20265;-82
2023/05/20 07:02:04;;;;;;;7.85;7.18;;;;;;;;;;4997039;28;20802;-83
2023/05/20 07:04:29;;;;;;;8.68;7.88;;;;;;;;;;4998452;28;20014;-84
2023/05/20 07:06:55;;;;;;;9.65;7.80;;;;;;;;;;4996670;28;20057;-83
2023/05/20 07:09:20;;;;;;;7.70;7.10;;;;;;;;;;5011043;28;20022;-84
2023/05/20 07:11:45;;;;;;;7.70;7.00;;;;;;;;;;4997086;28;20034;-83
2023/05/20 07:14:11;;;;;;;8.17;7.37;;;;;;;;;;4997917;28;20084;-81
2023/05/20 07:16:36;;;;;;;10.52;7.43;;;;;;;;;;4998929;28;20507;-83
2023/05/20 07:19:02;;;;;;;9.70;8.90;;;;;;;;;;4997338;28;20021;-85
2023/05/20 07:21:27;;;;;;;10.82;8.25;;;;;;;;;;4998123;28;20531;-81
2023/05/20 07:23:53;;;;;;;7.88;7.18;;;;;;;;;;4998021;28;20160;-84
2023/05/20 07:26:18;;;;;;;7.88;7.07;;;;;;;;;;4999546;28;20026;-80
2023/05/20 07:28:44;;;;;;;7.50;6.90;;;;;;;;;;4997932;28;20017;-82
2023/05/20 07:31:10;;;;;;;9.48;6.95;;;;;;;;;;5002229;28;20352;-83
2023/05/20 07:33:35;;;;;;;7.97;7.18;;;;;;;;;;5002479;28;20109;-80
2023/05/20 07:36:01;;;;;;;7.45;6.65;;;;;;;;;;5001348;28;20033;-83
2023/05/20 07:38:26;;;;;;;7.33;6.73;;;;;;;;;;5001204;28;20559;-83
2023/05/20 07:40:51;;;;;;;7.73;6.70;;;;;;;;;;5002367;28;20249;-82
2023/05/20 07:43:16;;;;;;;8.00;7.03;;;;;;;;;;5001742;28;20306;-80
2023/05/20 07:45:42;;;;;;;7.85;7.03;;;;;;;;;;5000299;28;20403;-82
2023/05/20 07:48:11;;;;;;;7.30;6.70;;;;;;;;;;5003000;28;20870;-84
2023/05/20 07:50:38;;;;;;;8.63;7.82;;;;;;;;;;5001701;28;20366;-84
2023/05/20 07:53:03;;;;;;;8.70;7.90;;;;;;;;;;5002926;28;20010;-82
2023/05/20 07:55:28;;;;;;;12.45;7.53;;;;;;;;;;5002193;28;20547;-79
2023/05/20 07:57:53;;;;;;;10.63;8.73;;;;;;;;;;5002272;28;20026;-82
2023/05/20 08:00:19;;;;;;;9.37;8.47;;;;;;;;;;5002736;28;20327;-83
2023/05/20 08:02:45;;;;;;;8.35;7.60;;;;;;;;;;5001658;28;20292;-82
2023/05/20 08:05:10;;;;;;;9.20;8.30;;;;;;;;;;5002303;28;20021;-78
2023/05/20 08:07:35;;;;;;;8.45;7.75;;;;;;;;;;5001315;28;20062;-82
2023/05/20 08:10:01;;;;;;;8.68;7.57;;;;;;;;;;5002714;28;20018;-81
2023/05/20 08:12:26;;;;;;;8.00;6.95;;;;;;;;;;5001403;28;20021;-80
2023/05/20 08:14:52;;;;;;;7.72;7.03;;;;;;;;;;5001142;28;20520;-84
2023/05/20 08:17:18;;;;;;;7.53;7.03;;;;;;;;;;4994222;28;21799;-81
2023/05/20 08:19:43;;;;;;;9.10;6.60;;;;;;;;;;4991752;28;20730;-85
2023/05/20 08:22:08;;;;;;;7.05;5.88;;;;;;;;;;4997995;28;20281;-82
2023/05/20 08:24:33;;;;;;;7.68;6.00;;;;;;;;;;4998945;28;20037;-82
2023/05/20 08:26:59;;;;;;;6.60;5.90;;;;;;;;;;5002185;28;20026;-83
2023/05/20 08:29:24;;;;;;;6.57;5.43;;;;;;;;;;4996901;28;20265;-80
2023/05/20 08:31:51;;;;;;;9.07;5.73;;;;;;;;;;5001981;28;20111;-77
2023/05/20 08:34:16;;;;;;;6.00;5.40;;;;;;;;;;5001061;28;20675;-79
2023/05/20 08:36:43;;;;;;;7.20;5.60;;;;;;;;;;5002545;28;20028;-83
2023/05/20 08:39:09;;;;;;;5.50;5.00;;;;;;;;;;4994215;28;20332;-82
2023/05/20 08:41:35;;;;;;;5.72;5.22;;;;;;;;;;4997364;28;20064;-80
2023/05/20 08:44:01;;;;;;;7.63;5.65;;;;;;;;;;5009169;28;20011;-81
2023/05/20 08:46:26;;;;;;;6.50;5.40;;;;;;;;;;4993868;28;20046;-80
2023/05/20 08:48:52;;;;;;;6.68;5.78;;;;;;;;;;4994612;28;20080;-80
2023/05/20 08:51:19;;;;;;;7.78;5.60;;;;;;;;;;4992346;28;20618;-80
2023/05/20 08:53:45;;;;;;;5.70;5.20;;;;;;;;;;5000233;28;20381;-81
2023/05/20 08:56:10;;;;;;;6.07;5.47;;;;;;;;;;5001859;28;20036;-82
2023/05/20 08:58:36;;;;;;;8.98;5.82;;;;;;;;;;5002691;28;20404;-81
2023/05/20 09:01:01;;;;;;;6.20;5.53;;;;;;;;;;5002635;28;20014;-82
2023/05/20 09:03:27;;;;;;;5.97;5.43;;;;;;;;;;5000170;28;20010;-81
2023/05/20 09:05:53;;;;;;;6.30;5.70;;;;;;;;;;5002267;28;20543;-83
2023/05/20 09:08:19;;;;;;;6.40;5.80;;;;;;;;;;4998683;28;20045;-81
2023/05/20 09:10:44;;;;;;;8.65;6.15;;;;;;;;;;4981562;28;20042;-81
2023/05/20 09:13:10;;;;;;;6.60;6.10;;;;;;;;;;4991413;28;20045;-81
2023/05/20 09:15:35;;;;;;;9.02;5.97;;;;;;;;;;5001432;28;20711;-82
2023/05/20 09:18:05;;;;;;;6.55;5.97;;;;;;;;;;4999505;28;20026;-81
2023/05/20 09:20:32;;;;;;;6.75;5.85;;;;;;;;;;5000255;28;20137;-85
2023/05/20 09:22:58;;;;;;;7.22;6.18;;;;;;;;;;5001234;28;20076;-80
2023/05/20 09:25:23;;;;;;;6.57;6.07;;;;;;;;;;4999691;28;20018;-85
2023/05/20 09:27:49;;;;;;;6.30;5.37;;;;;;;;;;4999787;28;20045;-80
2023/05/20 09:30:17;;;;;;;6.43;5.85;;;;;;;;;;5000081;28;20050;-86
2023/05/20 09:32:43;;;;;;;5.82;5.32;;;;;;;;;;5000259;28;20427;-83
2023/05/20 09:35:12;;;;;;;6.35;5.75;;;;;;;;;;5002526;28;20034;-80
2023/05/20 09:37:38;;;;;;;10.55;5.55;;;;;;;;;;5002147;28;20473;-81
2023/05/20 09:40:08;;;;;;;6.53;5.90;;;;;;;;;;5003303;28;20041;-82
2023/05/20 09:42:45;;;;;;;5.40;5.00;;;;;;;;;;5001583;28;20653;-82
2023/05/20 09:45:11;;;;;;;6.90;5.93;;;;;;;;;;5003054;28;20436;-84
2023/05/20 09:47:40;;;;;;;5.65;5.25;;;;;;;;;;4999909;28;20511;-85
2023/05/20 09:50:07;;;;;;;7.78;6.13;;;;;;;;;;5001447;28;20022;-83
2023/05/20 09:52:33;;;;;;;8.90;5.28;;;;;;;;;;5001866;28;20076;-83
2023/05/20 09:55:01;;;;;;;5.95;5.45;;;;;;;;;;5001754;28;20062;-86
2023/05/20 09:57:29;;;;;;;4.93;4.57;;;;;;;;;;5000886;28;20030;-81
2023/05/20 09:59:54;;;;;;;5.47;5.03;;;;;;;;;;5001400;28;20027;-86
2023/05/20 10:02:20;;;;;;;4.83;4.33;;;;;;;;;;5002695;28;20018;-81
2023/05/20 10:04:48;;;;;;;6.35;4.70;;;;;;;;;;4994703;28;20313;-88
2023/05/20 10:07:20;;;;;;;5.18;4.75;;;;;;;;;;4993120;28;20476;-86
2023/05/20 10:09:55;;;;;;;5.50;4.85;;;;;;;;;;4990269;28;20033;-88
2023/05/20 10:12:20;;;;;;;5.68;4.70;;;;;;;;;;4998120;28;20140;-88
2023/05/20 10:14:48;;;;;;;5.35;4.85;;;;;;;;;;4994744;28;20109;-83
2023/05/20 10:17:14;;;;;;;9.82;5.15;;;;;;;;;;4988259;28;20025;-83
2023/05/20 10:19:39;;;;;;;4.93;4.47;;;;;;;;;;5006097;28;21617;-84
2023/05/20 10:22:08;;;;;;;5.80;4.55;;;;;;;;;;5001005;28;20343;-86
2023/05/20 10:24:36;;;;;;;6.72;4.63;;;;;;;;;;5000299;28;20400;-87
2023/05/20 10:27:02;;;;;;;5.47;4.50;;;;;;;;;;5001681;28;20033;-85
2023/05/20 10:29:27;;;;;;;4.45;4.15;;;;;;;;;;5001949;28;20022;-85
2023/05/20 10:31:53;;;;;;;6.87;4.20;;;;;;;;;;5000899;28;20113;-86
2023/05/20 10:34:20;;;;;;;5.22;4.65;;;;;;;;;;5000182;28;20687;-84
2023/05/20 10:37:05;;;;;;;5.20;4.80;;;;;;;;;;5002099;28;20840;-86
2023/05/20 10:39:34;;;;;;;6.28;5.10;;;;;;;;;;4984127;28;20038;-84
2023/05/20 10:42:06;;;;;;;6.53;4.93;;;;;;;;;;4994663;28;20026;-86
2023/05/20 10:44:44;;;;;;;6.10;4.93;;;;;;;;;;4996947;28;20500;-86
2023/05/20 10:47:10;;;;;;;8.43;4.93;;;;;;;;;;4994724;28;20486;-87
2023/05/20 10:49:38;;;;;;;5.43;4.88;;;;;;;;;;4998415;28;20022;-86
2023/05/20 10:52:06;;;;;;;6.90;5.05;;;;;;;;;;4999787;28;20040;-86
2023/05/20 10:54:34;;;;;;;5.35;5.00;;;;;;;;;;4997558;28;20121;-88
2023/05/20 10:56:59;;;;;;;7.60;5.83;;;;;;;;;;4995209;28;20434;-81
2023/05/20 10:59:25;;;;;;;5.55;5.13;;;;;;;;;;4997294;28;20029;-90
2023/05/20 11:01:50;;;;;;;9.80;5.22;;;;;;;;;;4998248;28;20488;-84
2023/05/20 11:04:16;;;;;;;5.65;5.10;;;;;;;;;;4992733;28;20134;-84
2023/05/20 11:06:48;;;;;;;6.32;5.22;;;;;;;;;;4989887;28;20132;-87
2023/05/20 11:09:15;;;;;;;7.85;5.53;;;;;;;;;;4994522;28;20013;-88
2023/05/20 11:11:40;;;;;;;5.68;5.25;;;;;;;;;;4999979;28;20046;-89
2023/05/20 11:14:05;;;;;;;5.45;4.95;;;;;;;;;;4998837;28;20035;-78
2023/05/20 11:16:31;;;;;;;6.93;5.47;;;;;;;;;;5001653;28;20030;-84
2023/05/20 11:18:56;;;;;;;5.95;5.28;;;;;;;;;;4997935;28;20033;-88
2023/05/20 11:21:21;;;;;;;5.85;5.28;;;;;;;;;;4991091;28;20018;-85
2023/05/20 11:23:50;;;;;;;5.32;4.75;;;;;;;;;;4994313;28;20032;-84
2023/05/20 11:26:15;;;;;;;6.78;5.43;;;;;;;;;;4992355;28;20021;-82
2023/05/20 11:28:41;;;;;;;5.53;5.03;;;;;;;;;;4995968;28;20506;-80
2023/05/20 11:31:06;;;;;;;5.67;5.17;;;;;;;;;;4997344;28;20026;-79
2023/05/20 11:33:31;;;;;;;5.78;4.97;;;;;;;;;;4999936;28;20292;-81
2023/05/20 11:35:57;;;;;;;5.05;4.55;;;;;;;;;;4993247;28;20049;-84
2023/05/20 11:38:23;;;;;;;14.10;5.40;;;;;;;;;;4991102;28;20086;-81
2023/05/20 11:40:54;;;;;;;8.88;5.30;;;;;;;;;;4996051;28;20018;-84
2023/05/20 11:43:20;;;;;;;5.97;5.38;;;;;;;;;;4989130;28;20073;-83
2023/05/20 11:45:47;;;;;;;6.68;4.75;;;;;;;;;;4994940;28;20050;-86
2023/05/20 11:48:14;;;;;;;9.13;5.53;;;;;;;;;;4990964;28;20026;-80
2023/05/20 11:50:43;;;;;;;7.75;5.00;;;;;;;;;;4988409;28;20021;-85
2023/05/20 11:53:09;;;;;;;18.52;7.30;;;;;;;;;;4994726;28;20041;-80
2023/05/20 11:55:44;;;;;;;18.13;7.90;;;;;;;;;;5005425;28;20104;-86
2023/05/20 11:58:09;;;;;;;8.23;7.40;;;;;;;;;;4998216;28;20030;-80
2023/05/20 12:00:35;;;;;;;7.50;6.22;;;;;;;;;;4997983;28;20021;-90
2023/05/20 12:03:00;;;;;;;5.85;5.35;;;;;;;;;;4999904;28;20034;-88
2023/05/20 12:05:25;;;;;;;6.82;4.72;;;;;;;;;;4992936;28;20026;-83
2023/05/20 12:07:51;;;;;;;5.15;4.18;;;;;;;;;;4979843;28;20023;-87
2023/05/20 12:10:16;;;;;;;6.07;4.40;;;;;;;;;;4996367;28;20084;-86
2023/05/20 12:12:43;;;;;;;4.70;4.40;;;;;;;;;;5001373;28;20104;-91
2023/05/20 12:15:09;;;;;;;7.00;5.15;;;;;;;;;;4990120;28;20030;-87
2023/05/20 12:17:43;;;;;;;5.75;4.57;;;;;;;;;;4997786;28;20450;-91
2023/05/20 12:20:09;;;;;;;8.88;5.45;;;;;;;;;;4998640;28;20101;-88
2023/05/20 12:22:34;;;;;;;6.55;4.88;;;;;;;;;;4998718;28;20112;-84
2023/05/20 12:24:59;;;;;;;7.15;5.70;;;;;;;;;;4998261;28;20303;-89
2023/05/20 12:27:25;;;;;;;6.93;5.65;;;;;;;;;;4997672;28;20073;-85
2023/05/20 12:29:50;;;;;;;5.85;5.32;;;;;;;;;;5005208;28;20476;-89
2023/05/20 12:32:15;;;;;;;5.10;4.68;;;;;;;;;;4999988;28;20150;-86
2023/05/20 12:34:41;;;;;;;5.85;5.45;;;;;;;;;;4995254;28;20843;-90
2023/05/20 12:37:06;;;;;;;5.18;4.78;;;;;;;;;;4998789;28;20029;-89
2023/05/20 12:39:31;;;;;;;5.73;5.33;;;;;;;;;;5004078;28;20014;-88
2023/05/20 12:41:56;;;;;;;5.80;5.25;;;;;;;;;;5011764;28;20855;-92
2023/05/20 12:44:22;;;;;;;6.87;5.43;;;;;;;;;;5009664;28;20030;-91
2023/05/20 12:46:47;;;;;;;6.40;5.80;;;;;;;;;;5004562;28;21238;-88
2023/05/20 12:49:12;;;;;;;8.50;5.05;;;;;;;;;;5002683;28;20598;-87
2023/05/20 12:51:38;;;;;;;10.32;5.97;;;;;;;;;;5003358;28;20504;-86
2023/05/20 12:54:03;;;;;;;6.55;5.95;;;;;;;;;;5002254;28;20485;-86
2023/05/20 12:56:29;;;;;;;5.75;5.25;;;;;;;;;;5002808;28;20030;-89
2023/05/20 12:58:54;;;;;;;6.35;5.55;;;;;;;;;;5004374;28;20076;-84
2023/05/20 13:01:19;;;;;;;5.70;5.18;;;;;;;;;;5002531;28;20022;-86
2023/05/20 13:03:46;;;;;;;5.97;4.75;;;;;;;;;;5004388;28;20030;-81
2023/05/20 13:06:11;;;;;;;6.13;5.63;;;;;;;;;;5002773;28;20025;-92
2023/05/20 13:08:36;;;;;;;7.25;6.53;;;;;;;;;;5004989;28;20022;-89
2023/05/20 13:11:02;;;;;;;6.32;5.75;;;;;;;;;;5003912;28;20087;-85
2023/05/20 13:13:27;;;;;;;6.97;6.38;;;;;;;;;;5001960;28;20507;-85
2023/05/20 13:15:53;;;;;;;6.85;6.25;;;;;;;;;;5002467;28;20109;-88
2023/05/20 13:18:19;;;;;;;6.65;6.07;;;;;;;;;;5001516;28;20619;-83
2023/05/20 13:20:44;;;;;;;7.47;6.78;;;;;;;;;;5003037;28;20527;-86
2023/05/20 13:23:10;;;;;;;6.78;6.18;;;;;;;;;;5001292;28;20057;-83
2023/05/20 13:25:35;;;;;;;6.85;6.35;;;;;;;;;;5002330;28;20116;-91
2023/05/20 13:28:01;;;;;;;7.07;6.38;;;;;;;;;;5001405;28;20416;-81
2023/05/20 13:30:27;;;;;;;8.27;5.88;;;;;;;;;;5003210;28;20022;-84
2023/05/20 13:32:52;;;;;;;8.60;6.25;;;;;;;;;;5003214;28;20475;-80
2023/05/20 13:35:18;;;;;;;7.22;6.35;;;;;;;;;;5002186;28;20052;-90
2023/05/20 13:37:43;;;;;;;7.65;6.50;;;;;;;;;;5003701;28;20092;-85
2023/05/20 13:40:11;;;;;;;8.38;6.63;;;;;;;;;;5006887;28;20022;-87
2023/05/20 13:42:37;;;;;;;7.18;6.57;;;;;;;;;;5004207;28;20029;-85
2023/05/20 13:45:02;;;;;;;8.03;6.90;;;;;;;;;;5016229;28;20053;-90
2023/05/20 13:47:28;;;;;;;7.55;6.82;;;;;;;;;;5002748;28;20275;-87
2023/05/20 13:49:53;;;;;;;7.57;6.88;;;;;;;;;;4985453;28;20468;-85
2023/05/20 13:52:18;;;;;;;8.48;6.82;;;;;;;;;;5001281;28;20030;-81
2023/05/20 13:54:46;;;;;;;7.23;6.47;;;;;;;;;;5002668;28;20022;-80
2023/05/20 13:57:11;;;;;;;11.48;6.38;;;;;;;;;;5003666;28;20260;-85
2023/05/20 13:59:37;;;;;;;8.55;6.57;;;;;;;;;;5002864;28;20018;-87
2023/05/20 14:02:02;;;;;;;6.78;6.18;;;;;;;;;;4999155;28;20026;-85
2023/05/20 14:04:29;;;;;;;6.80;6.20;;;;;;;;;;5001694;28;20020;-90
2023/05/20 14:27:58;;;;;;;7.70;6.88;;;;;;;18.13;98.62;94790.03;4935247;27;4040612;-78
2023/05/20 14:30:24;;;;;;;7.28;6.70;;;;;;;17.95;95.32;94753.34;5043423;28;20044;-80
2023/05/20 14:33:29;;;;;;;8.35;7.50;;;;;;;18.20;98.08;94790.78;5033931;28;20539;-81
2023/05/20 14:35:54;;;;;;;7.82;7.03;;;;;;;17.82;99.97;94735.16;5047467;28;20446;-85
2023/05/20 14:38:20;;;;;;;7.95;7.07;;;;;;;17.87;97.79;94751.06;5020903;28;20075;-80
2023/05/20 14:40:46;;;;;;;9.75;7.90;;;;;;;17.83;98.34;94739.41;5037189;28;20029;-83
2023/05/20 14:43:11;;;;;;;9.30;8.50;;;;;;;18.08;97.50;94774.16;5015266;28;21295;-85
2023/05/20 14:45:37;;;;;;;8.75;7.93;;;;;;;18.11;97.96;94771.09;5055297;28;20074;-81
2023/05/20 14:48:02;;;;;;;8.00;7.25;;;;;;;18.26;98.19;94779.38;5039190;28;20111;-84
2023/05/20 14:50:31;;;;;;;10.40;8.60;;;;;;;18.28;97.34;94774.72;5038054;28;20025;-80
2023/05/20 14:52:56;;;;;;;7.78;7.18;;;;;;;18.35;98.34;94772.00;5027813;28;20135;-85
2023/05/20 14:55:22;;;;;;;8.68;7.15;;;;;;;18.17;98.12;94741.38;5022185;28;20013;-80
2023/05/20 14:57:47;;;;;;;7.57;6.97;;;;;;;18.32;99.12;94754.09;5020302;28;20140;-82